createdAt,value
2023-04-04T00:00:45.693Z,98927.42
2023-04-04T00:03:19.477Z,98931.80
2023-04-04T00:05:52.753Z,98931.80
2023-04-04T00:08:26.420Z,98930.12
2023-04-04T00:11:01.549Z,98930.12
2023-04-04T00:13:35.100Z,98917.11
2023-04-04T00:16:10.235Z,98925.75
2023-04-04T00:18:43.590Z,98921.38
2023-04-04T00:21:16.979Z,98920.52
2023-04-04T00:23:50.143Z,98917.92
2023-04-04T00:26:23.095Z,98919.63
2023-04-04T00:28:56.556Z,98922.20
2023-04-04T00:31:30.081Z,98918.67
2023-04-04T00:34:03.390Z,98917.77
2023-04-04T00:36:36.641Z,98913.41
2023-04-04T00:39:10.130Z,98914.25
2023-04-04T00:41:43.303Z,98913.33
2023-04-04T00:44:16.776Z,98912.41
2023-04-04T00:46:50.470Z,98915.00
2023-04-04T00:49:23.489Z,98917.60
2023-04-04T00:51:56.946Z,98914.12
2023-04-04T00:54:31.521Z,98915.83
2023-04-04T00:57:07.154Z,98915.80
2023-04-04T00:59:40.247Z,98909.68
2023-04-04T01:02:13.624Z,98913.13
2023-04-04T01:04:47.345Z,98922.66
2023-04-04T01:07:21.123Z,98914.84
2023-04-04T01:09:56.931Z,98917.39
2023-04-04T01:12:30.269Z,98919.95
2023-04-04T01:15:04.223Z,98917.30
2023-04-04T01:17:39.021Z,98916.42
2023-04-04T01:20:15.973Z,98919.90
2023-04-04T01:22:53.091Z,98920.88
2023-04-04T01:25:31.974Z,98926.12
2023-04-04T01:28:07.536Z,98916.63
2023-04-04T01:30:43.832Z,98916.56
2023-04-04T01:33:21.301Z,98919.95
2023-04-04T01:35:57.285Z,98912.07
2023-04-04T01:38:33.928Z,98906.84
2023-04-04T01:41:10.360Z,98911.16
2023-04-04T01:43:48.096Z,98907.72
2023-04-04T01:46:22.504Z,98907.72
2023-04-04T01:48:56.276Z,98906.03
2023-04-04T01:51:32.027Z,98903.44
2023-04-04T01:54:05.718Z,98900.84
2023-04-04T01:56:39.075Z,98902.52
2023-04-04T01:59:12.317Z,98901.64
2023-04-04T02:01:45.591Z,98899.05
2023-04-04T02:04:18.870Z,98901.63
2023-04-04T02:06:52.815Z,98890.33
2023-04-04T02:09:26.345Z,98894.61
2023-04-04T02:11:59.979Z,98893.67
2023-04-04T02:14:33.408Z,98891.92
2023-04-04T02:17:07.692Z,98898.01
2023-04-04T02:19:40.968Z,98905.82
2023-04-04T02:22:14.062Z,98902.38
2023-04-04T02:24:47.157Z,98898.94
2023-04-04T02:27:20.588Z,98903.25
2023-04-04T02:29:55.389Z,98906.73
2023-04-04T02:32:28.729Z,98904.16
2023-04-04T02:35:02.326Z,98907.69
2023-04-04T02:37:35.209Z,98905.11
2023-04-04T02:40:11.464Z,98905.94
2023-04-04T02:42:48.275Z,98911.14
2023-04-04T02:45:21.471Z,98902.49
2023-04-04T02:47:56.488Z,98901.66
2023-04-04T02:50:31.425Z,98893.84
2023-04-04T02:53:05.950Z,98899.05
2023-04-04T02:55:39.651Z,98895.55
2023-04-04T02:58:13.273Z,98893.84
2023-04-04T03:00:47.658Z,98892.97
2023-04-04T03:03:21.099Z,98896.39
2023-04-04T03:05:54.746Z,98887.73
2023-04-04T03:08:28.791Z,98895.55
2023-04-04T03:11:03.691Z,98900.73
2023-04-04T03:13:37.020Z,98896.39
2023-04-04T03:16:11.890Z,98901.63
2023-04-04T03:18:50.083Z,98903.35
2023-04-04T03:21:25.132Z,98903.35
2023-04-04T03:24:00.014Z,98904.25
2023-04-04T03:26:33.413Z,98907.69
2023-04-04T03:29:07.368Z,98905.09
2023-04-04T03:31:41.744Z,98905.94
2023-04-04T03:34:15.839Z,98905.95
2023-04-04T03:36:49.114Z,98906.03
2023-04-04T03:39:22.397Z,98914.76
2023-04-04T03:41:56.469Z,98908.73
2023-04-04T03:44:30.154Z,98913.95
2023-04-04T03:47:03.551Z,98915.73
2023-04-04T03:49:38.540Z,98912.27
2023-04-04T03:52:12.286Z,98915.70
2023-04-04T03:54:45.690Z,98910.50
2023-04-04T03:57:19.112Z,98906.13
2023-04-04T03:59:52.544Z,98906.03
2023-04-04T04:02:27.601Z,98911.98
2023-04-04T04:05:00.897Z,98915.41
2023-04-04T04:07:34.074Z,98908.53
2023-04-04T04:10:08.919Z,98916.34
2023-04-04T04:12:42.537Z,98915.53
2023-04-04T04:15:16.161Z,98913.00
2023-04-04T04:17:49.768Z,98909.59
2023-04-04T04:20:23.870Z,98916.63
2023-04-04T04:22:57.860Z,98909.75
2023-04-04T04:25:31.426Z,98915.88
2023-04-04T04:28:06.401Z,98915.05
2023-04-04T04:30:39.861Z,98922.86
2023-04-04T04:33:13.820Z,98917.60
2023-04-04T04:35:54.357Z,98919.34
2023-04-04T04:38:28.697Z,98921.95
2023-04-04T04:41:02.657Z,98918.48
2023-04-04T04:43:37.766Z,98926.32
2023-04-04T04:46:11.248Z,98919.45
2023-04-04T04:48:44.669Z,98922.14
2023-04-04T04:51:18.436Z,98922.23
2023-04-04T04:53:53.323Z,98913.67
2023-04-04T04:56:27.378Z,98924.17
2023-04-04T04:59:02.267Z,98916.43
2023-04-04T05:01:35.301Z,98924.30
2023-04-04T05:04:09.667Z,98920.80
2023-04-04T05:06:44.588Z,98922.58
2023-04-04T05:09:18.572Z,98926.15
2023-04-04T05:11:52.063Z,98921.92
2023-04-04T05:14:27.713Z,98914.23
2023-04-04T05:17:02.147Z,98908.30
2023-04-04T05:19:37.174Z,98911.80
2023-04-04T05:22:10.652Z,98903.98
2023-04-04T05:24:45.706Z,98907.51
2023-04-04T05:27:20.639Z,98898.89
2023-04-04T05:29:56.105Z,98897.20
2023-04-04T05:32:30.225Z,98893.82
2023-04-04T05:35:05.417Z,98903.44
2023-04-04T05:37:42.739Z,98892.22
2023-04-04T05:40:18.442Z,98897.53
2023-04-04T05:42:59.572Z,98881.94
2023-04-04T05:45:34.864Z,98879.34
2023-04-04T05:48:08.441Z,98873.31
2023-04-04T05:50:44.779Z,98882.00
2023-04-04T05:53:18.372Z,98876.75
2023-04-04T05:55:55.012Z,98886.31
2023-04-04T05:58:29.862Z,98891.52
2023-04-04T06:01:03.621Z,98889.73
2023-04-04T06:03:37.023Z,98886.16
2023-04-04T06:06:12.194Z,98883.52
2023-04-04T06:08:53.511Z,98889.59
2023-04-04T06:11:21.915Z,98888.62
2023-04-04T06:13:55.309Z,98887.70
2023-04-04T06:16:30.288Z,98892.89
2023-04-04T06:19:03.841Z,98886.73
2023-04-04T06:21:37.170Z,98883.98
2023-04-04T06:24:11.396Z,98888.22
2023-04-04T06:26:45.641Z,98880.27
2023-04-04T06:29:19.081Z,98878.65
2023-04-04T06:31:53.188Z,98883.09
2023-04-04T06:34:28.452Z,98877.03
2023-04-04T06:37:03.688Z,98891.90
2023-04-04T06:39:38.625Z,98895.42
2023-04-04T06:42:13.508Z,98890.97
2023-04-04T06:44:49.088Z,98891.75
2023-04-04T06:47:22.790Z,98902.05
2023-04-04T06:49:56.672Z,98907.09
2023-04-04T06:52:30.473Z,98899.58
2023-04-04T06:55:04.407Z,98900.82
2023-04-04T06:57:38.560Z,98897.00
2023-04-04T07:00:14.373Z,98895.56
2023-04-04T07:02:47.732Z,98889.50
2023-04-04T07:05:21.096Z,98898.33
2023-04-04T07:07:57.127Z,98893.98
2023-04-04T07:10:30.711Z,98898.53
2023-04-04T07:13:04.385Z,98891.83
2023-04-04T07:15:38.174Z,98890.30
2023-04-04T07:18:12.547Z,98894.20
2023-04-04T07:20:48.194Z,98895.72
2023-04-04T07:23:21.649Z,98898.48
2023-04-04T07:25:55.066Z,98898.26
2023-04-04T07:28:28.323Z,98898.45
2023-04-04T07:31:03.604Z,98899.00
2023-04-04T07:33:36.798Z,98900.95
2023-04-04T07:36:10.312Z,98901.59
2023-04-04T07:38:43.562Z,98901.55
2023-04-04T07:41:16.824Z,98908.55
2023-04-04T07:43:50.202Z,98906.73
2023-04-04T07:46:23.694Z,98898.01
2023-04-04T07:48:57.209Z,98905.39
2023-04-04T07:51:31.544Z,98911.03
2023-04-04T07:54:04.527Z,98909.23
2023-04-04T07:56:37.553Z,98908.33
2023-04-04T07:59:10.708Z,98901.03
2023-04-04T08:01:46.133Z,98900.27
2023-04-04T08:04:20.043Z,98904.22
2023-04-04T08:06:53.245Z,98889.34
2023-04-04T08:09:28.237Z,98898.87
2023-04-04T08:12:01.666Z,98897.82
2023-04-04T08:14:34.707Z,98900.06
2023-04-04T08:17:08.267Z,98902.91
2023-04-04T08:19:41.305Z,98904.23
2023-04-04T08:22:14.821Z,98909.91
2023-04-04T08:24:47.978Z,98907.47
2023-04-04T08:27:20.975Z,98912.81
2023-04-04T08:29:54.942Z,98914.05
2023-04-04T08:32:28.067Z,98914.19
2023-04-04T08:35:01.244Z,98916.45
2023-04-04T08:37:35.590Z,98912.66
2023-04-04T08:40:10.649Z,98915.05
2023-04-04T08:42:46.105Z,98908.64
2023-04-04T08:45:22.749Z,98908.86
2023-04-04T08:47:59.276Z,98890.09
2023-04-04T08:50:33.733Z,98894.73
2023-04-04T08:53:07.929Z,98883.27
2023-04-04T08:55:42.558Z,98901.91
2023-04-04T08:58:17.471Z,98903.16
2023-04-04T09:00:52.092Z,98907.45
2023-04-04T09:03:27.629Z,98907.36
2023-04-04T09:06:01.243Z,98900.64
2023-04-04T09:08:34.423Z,98901.83
2023-04-04T09:11:07.976Z,98897.46
2023-04-04T09:13:42.301Z,98899.44
2023-04-04T09:16:16.048Z,98910.44
2023-04-04T09:18:49.002Z,98901.64
2023-04-04T09:21:22.405Z,98900.12
2023-04-04T09:24:02.216Z,98908.72
2023-04-04T09:26:49.157Z,98914.53
2023-04-04T09:29:22.787Z,98920.72
2023-04-04T09:31:56.062Z,98918.03
2023-04-04T09:34:31.919Z,98923.75
2023-04-04T09:37:06.356Z,98921.41
2023-04-04T09:39:41.054Z,98918.06
2023-04-04T09:42:14.380Z,98920.38
2023-04-04T09:44:47.298Z,98917.54
2023-04-04T09:47:42.888Z,98922.91
2023-04-04T09:50:20.199Z,98920.52
2023-04-04T09:52:55.412Z,98917.83
2023-04-04T09:55:36.716Z,98916.75
2023-04-04T09:58:20.403Z,98912.05
2023-04-04T10:00:56.243Z,98923.98
2023-04-04T10:03:30.037Z,98924.89
2023-04-04T10:06:07.199Z,98922.45
2023-04-04T10:08:42.278Z,98911.41
2023-04-04T10:11:16.846Z,98912.79
2023-04-04T10:13:51.413Z,98916.56
2023-04-04T10:16:26.789Z,98915.40
2023-04-04T10:19:00.394Z,98921.34
2023-04-04T10:21:33.288Z,98924.02
2023-04-04T10:24:09.874Z,98915.19
2023-04-04T10:26:43.482Z,98922.67
2023-04-04T10:29:16.580Z,98914.08
2023-04-04T10:31:50.962Z,98914.11
2023-04-04T10:34:29.545Z,98912.17
2023-04-04T10:37:12.823Z,98918.88
2023-04-04T10:39:48.278Z,98920.66
2023-04-04T10:42:21.850Z,98921.28
2023-04-04T10:44:55.690Z,98935.48
2023-04-04T10:47:30.847Z,98934.69
2023-04-04T10:50:06.586Z,98937.66
2023-04-04T10:52:42.230Z,98941.63
2023-04-04T10:55:17.336Z,98933.90
2023-04-04T10:57:54.598Z,98944.11
2023-04-04T11:00:29.950Z,98944.71
2023-04-04T11:03:05.341Z,98942.55
2023-04-04T11:05:43.577Z,98944.97
2023-04-04T11:08:20.130Z,98948.45
2023-04-04T11:10:54.570Z,98944.83
2023-04-04T11:13:30.842Z,98942.20
2023-04-04T11:16:10.007Z,98944.67
2023-04-04T11:18:49.330Z,98930.41
2023-04-04T11:21:25.195Z,98933.95
2023-04-04T11:24:17.729Z,98935.63
2023-04-04T11:26:51.347Z,98944.16
2023-04-04T11:29:28.130Z,98941.41
2023-04-04T11:32:01.550Z,98942.00
2023-04-04T11:34:36.863Z,98944.89
2023-04-04T11:37:20.128Z,98943.45
2023-04-04T11:39:55.560Z,98943.24
2023-04-04T11:42:37.610Z,98948.70
2023-04-04T11:45:11.516Z,98946.54
2023-04-04T11:47:48.204Z,98952.70
2023-04-04T11:50:22.374Z,98946.58
2023-04-04T11:52:56.566Z,98951.85
2023-04-04T11:55:29.742Z,98944.97
2023-04-04T11:58:13.662Z,98949.30
2023-04-04T12:00:48.089Z,98949.25
2023-04-04T12:03:21.876Z,98950.15
2023-04-04T12:05:55.328Z,98948.74
2023-04-04T12:08:29.454Z,98949.02
2023-04-04T12:11:09.535Z,98950.73
2023-04-04T12:13:46.075Z,98953.33
2023-04-04T12:16:20.818Z,98957.66
2023-04-04T12:18:54.073Z,98959.25
2023-04-04T12:21:27.870Z,98950.52
2023-04-04T12:24:01.428Z,98961.06
2023-04-04T12:26:35.270Z,98954.74
2023-04-04T12:29:09.617Z,98957.25
2023-04-04T12:31:45.301Z,98964.52
2023-04-04T12:34:23.466Z,98956.73
2023-04-04T12:36:58.746Z,98967.27
2023-04-04T12:39:32.742Z,98962.05
2023-04-04T12:42:07.707Z,98963.74
2023-04-04T12:44:41.772Z,98970.84
2023-04-04T12:47:18.100Z,98967.47
2023-04-04T12:49:54.346Z,98973.63
2023-04-04T12:55:11.130Z,98975.34
2023-04-04T12:57:46.278Z,98977.86
2023-04-04T13:00:22.934Z,98972.59
2023-04-04T13:02:56.476Z,98975.22
2023-04-04T13:05:29.719Z,98970.06
2023-04-04T13:08:10.439Z,98978.87
2023-04-04T13:11:06.781Z,98982.43
2023-04-04T13:13:41.289Z,98981.58
2023-04-04T13:16:17.355Z,98985.19
2023-04-04T13:18:50.737Z,98989.67
2023-04-04T13:21:24.294Z,98985.41
2023-04-04T13:23:57.794Z,98989.94
2023-04-04T13:26:31.413Z,98997.17
2023-04-04T13:29:04.629Z,99000.84
2023-04-04T13:31:38.127Z,99001.08
2023-04-04T13:34:11.257Z,99005.72
2023-04-04T13:36:45.053Z,99012.00
2023-04-04T13:39:18.440Z,99008.52
2023-04-04T13:41:51.763Z,99004.96
2023-04-04T13:44:26.778Z,99013.77
2023-04-04T13:47:00.111Z,99009.43
2023-04-04T13:49:33.383Z,99007.69
2023-04-04T13:52:07.316Z,99011.08
2023-04-04T13:54:40.372Z,99016.28
2023-04-04T13:57:14.113Z,99010.13
2023-04-04T13:59:47.949Z,99011.80
2023-04-04T14:02:21.337Z,99016.11
2023-04-04T14:04:55.084Z,99022.20
2023-04-04T14:07:28.790Z,99023.88
2023-04-04T14:10:02.213Z,99015.95
2023-04-04T14:12:35.630Z,99024.70
2023-04-04T14:15:11.607Z,99018.52
2023-04-04T14:17:46.033Z,99018.45
2023-04-04T14:20:19.965Z,99025.46
2023-04-04T14:22:53.515Z,99024.64
2023-04-04T14:25:26.989Z,99021.22
2023-04-04T14:28:00.661Z,99021.28
2023-04-04T14:30:34.216Z,99026.64
2023-04-04T14:33:08.172Z,99028.48
2023-04-04T14:35:42.580Z,99025.03
2023-04-04T14:38:16.555Z,99027.70
2023-04-04T14:40:50.348Z,99026.81
2023-04-04T14:43:24.507Z,99032.16
2023-04-04T14:45:58.126Z,99043.70
2023-04-04T14:48:32.010Z,99041.16
2023-04-04T14:51:05.853Z,99038.59
2023-04-04T14:53:39.514Z,99040.42
2023-04-04T14:56:13.160Z,99042.20
2023-04-04T14:58:47.056Z,99046.63
2023-04-04T15:01:22.019Z,99042.28
2023-04-04T15:03:56.433Z,99052.89
2023-04-04T15:06:31.646Z,99053.08
2023-04-04T15:09:06.113Z,99053.20
2023-04-04T15:11:39.669Z,99044.48
2023-04-04T15:14:13.309Z,99054.14
2023-04-04T15:16:46.926Z,99057.70
2023-04-04T15:19:21.066Z,99055.13
2023-04-04T15:21:57.448Z,99057.02
2023-04-04T15:24:31.116Z,99060.62
2023-04-04T15:27:04.940Z,99057.36
2023-04-04T15:29:38.214Z,99056.60
2023-04-04T15:32:11.714Z,99064.54
2023-04-04T15:34:45.450Z,99055.06
2023-04-04T15:37:19.239Z,99058.66
2023-04-04T15:39:53.963Z,99063.16
2023-04-04T15:42:29.299Z,99056.25
2023-04-04T15:45:03.929Z,99064.20
2023-04-04T15:47:38.332Z,99067.73
2023-04-04T15:50:12.894Z,99065.13
2023-04-04T15:52:52.987Z,99067.84
2023-04-04T15:55:32.209Z,99071.41
2023-04-04T15:58:08.213Z,99067.09
2023-04-04T16:00:46.273Z,99071.48
2023-04-04T16:03:24.369Z,99076.67
2023-04-04T16:06:03.976Z,99074.94
2023-04-04T16:08:40.430Z,99083.68
2023-04-04T16:11:15.652Z,99084.55
2023-04-04T16:13:51.676Z,99087.20
2023-04-04T16:16:25.602Z,99090.73
2023-04-04T16:18:59.435Z,99095.14
2023-04-04T16:21:33.517Z,99091.67
2023-04-04T16:24:08.333Z,99095.22
2023-04-04T16:26:43.585Z,99094.37
2023-04-04T16:29:18.653Z,99100.49
2023-04-04T16:31:57.300Z,99106.64
2023-04-04T16:34:31.011Z,99114.49
2023-04-04T16:37:04.785Z,99114.52
2023-04-04T16:39:38.492Z,99115.41
2023-04-04T16:42:12.233Z,99113.66
2023-04-04T16:44:45.758Z,99118.89
2023-04-04T16:47:19.449Z,99122.38
2023-04-04T16:49:52.924Z,99125.00
2023-04-04T16:52:26.501Z,99125.00
2023-04-04T16:54:59.890Z,99124.16
2023-04-04T16:57:34.816Z,99122.38
2023-04-04T17:00:10.828Z,99119.80
2023-04-04T17:02:46.228Z,99132.91
2023-04-04T17:05:20.001Z,99130.31
2023-04-04T17:07:53.251Z,99129.42
2023-04-04T17:10:26.975Z,99130.31
2023-04-04T17:13:00.705Z,99122.45
2023-04-04T17:15:34.708Z,99131.17
2023-04-04T17:18:08.673Z,99134.66
2023-04-04T17:20:43.717Z,99127.64
2023-04-04T17:23:21.170Z,99135.52
2023-04-04T17:25:54.945Z,99144.23
2023-04-04T17:28:28.465Z,99140.73
2023-04-04T17:31:02.554Z,99138.13
2023-04-04T17:33:36.122Z,99146.86
2023-04-04T17:36:10.125Z,99134.63
2023-04-04T17:38:43.516Z,99145.99
2023-04-04T17:41:17.012Z,99145.99
2023-04-04T17:43:51.054Z,99142.53
2023-04-04T17:46:25.673Z,99148.66
2023-04-04T17:48:59.232Z,99147.77
2023-04-04T17:51:34.008Z,99147.79
2023-04-04T17:54:08.580Z,99146.03
2023-04-04T17:56:43.832Z,99142.58
2023-04-04T17:59:17.830Z,99138.19
2023-04-04T18:01:51.666Z,99143.43
2023-04-04T18:04:25.568Z,99136.45
2023-04-04T18:06:59.943Z,99146.07
2023-04-04T18:09:34.043Z,99139.95
2023-04-04T18:12:08.202Z,99146.92
2023-04-04T18:14:41.855Z,99138.20
2023-04-04T18:17:15.541Z,99139.08
2023-04-04T18:19:49.090Z,99144.33
2023-04-04T18:22:23.223Z,99152.19
2023-04-04T18:24:57.637Z,99144.33
2023-04-04T18:27:31.745Z,99146.97
2023-04-04T18:30:05.808Z,99143.48
2023-04-04T18:32:39.675Z,99145.22
2023-04-04T18:35:14.815Z,99148.70
2023-04-04T18:37:48.381Z,99153.05
2023-04-04T18:40:22.084Z,99150.44
2023-04-04T18:42:55.627Z,99152.16
2023-04-04T18:45:39.377Z,99152.15
2023-04-04T18:48:08.676Z,99157.37
2023-04-04T18:50:42.774Z,99156.48
2023-04-04T18:53:16.485Z,99157.34
2023-04-04T18:55:50.012Z,99151.23
2023-04-04T18:58:24.238Z,99145.11
2023-04-04T19:00:58.834Z,99151.22
2023-04-04T19:03:34.851Z,99153.80
2023-04-04T19:06:10.459Z,99152.02
2023-04-04T19:08:44.943Z,99151.98
2023-04-04T19:11:18.744Z,99163.26
2023-04-04T19:13:52.839Z,99159.68
2023-04-04T19:16:26.517Z,99154.45
2023-04-04T19:19:00.385Z,99161.38
2023-04-04T19:21:34.339Z,99153.47
2023-04-04T19:24:09.091Z,99164.71
2023-04-04T19:26:42.869Z,99165.49
2023-04-04T19:29:19.696Z,99173.22
2023-04-04T19:31:55.558Z,99167.92
2023-04-04T19:34:30.693Z,99170.47
2023-04-04T19:37:04.304Z,99168.63
2023-04-04T19:39:39.265Z,99162.49
2023-04-04T19:42:13.405Z,99164.13
2023-04-04T19:44:46.960Z,99168.41
2023-04-04T19:47:22.093Z,99175.28
2023-04-04T19:49:56.288Z,99170.84
2023-04-04T19:52:29.809Z,99171.61
2023-04-04T19:55:06.168Z,99174.20
2023-04-04T19:57:40.864Z,99177.59
2023-04-04T20:00:18.448Z,99179.32
2023-04-04T20:02:57.523Z,99185.36
2023-04-04T20:06:03.163Z,99185.34
2023-04-04T20:08:41.207Z,99175.72
2023-04-04T20:11:15.228Z,99182.55
2023-04-04T20:13:49.000Z,99176.42
2023-04-04T20:16:23.234Z,99187.68
2023-04-04T20:18:58.516Z,99186.78
2023-04-04T20:21:32.580Z,99189.38
2023-04-04T20:24:08.964Z,99186.75
2023-04-04T20:26:46.724Z,99186.73
2023-04-04T20:29:22.673Z,99187.52
2023-04-04T20:31:58.155Z,99193.58
2023-04-04T20:34:42.731Z,99188.30
2023-04-04T20:37:20.326Z,99190.88
2023-04-04T20:39:57.263Z,99191.70
2023-04-04T20:42:41.514Z,99191.63
2023-04-04T20:45:47.035Z,99190.77
2023-04-04T20:48:38.858Z,99191.58
2023-04-04T20:51:24.694Z,99203.55
2023-04-04T20:54:00.302Z,99197.38
2023-04-04T20:56:55.230Z,99200.80
2023-04-04T20:59:37.905Z,99199.87
2023-04-04T21:02:17.082Z,99207.59
2023-04-04T21:04:52.236Z,99208.37
2023-04-04T21:07:39.390Z,99215.23
2023-04-04T21:10:28.665Z,99208.22
2023-04-04T21:13:03.197Z,99199.52
2023-04-04T21:15:38.631Z,99197.73
2023-04-04T21:18:13.610Z,99202.81
2023-04-04T21:21:18.935Z,99204.54
2023-04-04T21:23:54.405Z,99206.22
2023-04-04T21:26:35.551Z,99205.29
2023-04-04T21:29:11.516Z,99209.59
2023-04-04T21:31:46.914Z,99203.45
2023-04-04T21:34:22.100Z,99205.14
2023-04-04T21:36:57.158Z,99205.09
2023-04-04T21:39:31.833Z,99208.52
2023-04-04T21:42:08.840Z,99212.78
2023-04-04T21:44:41.717Z,99211.00
2023-04-04T21:47:15.889Z,99210.04
2023-04-04T21:49:49.373Z,99213.48
2023-04-04T21:52:23.041Z,99210.04
2023-04-04T21:54:56.633Z,99219.55
2023-04-04T21:57:30.029Z,99223.86
2023-04-04T22:00:03.943Z,99216.02
2023-04-04T22:02:37.484Z,99225.52
2023-04-04T22:05:12.192Z,99223.73
2023-04-04T22:07:46.116Z,99227.12
2023-04-04T22:10:21.662Z,99224.47
2023-04-04T22:12:57.401Z,99217.41
2023-04-04T22:15:30.964Z,99222.58
2023-04-04T22:18:05.246Z,99227.73
2023-04-04T22:20:39.244Z,99223.32
2023-04-04T22:23:15.539Z,99224.08
2023-04-04T22:25:49.200Z,99226.63
2023-04-04T22:28:24.932Z,99227.42
2023-04-04T22:30:58.776Z,99220.36
2023-04-04T22:33:34.988Z,99230.59
2023-04-04T22:36:10.245Z,99230.48
2023-04-04T22:38:44.156Z,99228.70
2023-04-04T22:41:17.765Z,99235.55
2023-04-04T22:43:51.186Z,99234.59
2023-04-04T22:46:26.004Z,99241.38
2023-04-04T22:49:06.781Z,99238.73
2023-04-04T22:51:45.943Z,99242.95
2023-04-04T22:54:20.938Z,99246.31
2023-04-04T22:56:54.518Z,99250.53
2023-04-04T22:59:28.110Z,99254.80
2023-04-04T23:02:01.328Z,99257.39
2023-04-04T23:04:35.273Z,99249.58
2023-04-04T23:07:09.077Z,99262.58
2023-04-04T23:09:42.665Z,99255.63
2023-04-04T23:12:16.558Z,99263.38
2023-04-04T23:14:50.126Z,99254.73
2023-04-04T23:17:23.785Z,99259.03
2023-04-04T23:19:57.258Z,99264.97
2023-04-04T23:22:31.545Z,99263.05
2023-04-04T23:25:06.616Z,99262.16
2023-04-04T23:27:40.917Z,99264.73
2023-04-04T23:30:15.571Z,99264.73
2023-04-04T23:32:49.040Z,99262.07
2023-04-04T23:35:22.538Z,99262.01
2023-04-04T23:37:56.474Z,99261.95
2023-04-04T23:40:30.129Z,99260.98
2023-04-04T23:43:03.868Z,99258.23
2023-04-04T23:45:40.128Z,99258.17
2023-04-04T23:48:13.634Z,99258.08
2023-04-04T23:50:47.277Z,99268.39
2023-04-04T23:53:20.926Z,99261.37
2023-04-04T23:55:54.060Z,99269.09
2023-04-04T23:58:27.428Z,99269.83
